sensor_id;sensor_type;location;lat;lon;timestamp;temperature;humidity
32107;DHT22;18622;51.998;10.440;2022-12-13T03:16:49;-6.20;99.90
32107;DHT22;18622;51.998;10.440;2022-12-13T03:19:18;-6.20;99.90
32107;DHT22;18622;51.998;10.440;2022-12-13T03:21:48;-6.10;99.90
32107;DHT22;18622;51.998;10.440;2022-12-13T03:24:17;-6.10;99.90
32107;DHT22;18622;51.998;10.440;2022-12-13T03:26:47;-6.00;99.90
32107;DHT22;18622;51.998;10.440;2022-12-13T03:29:15;-6.00;99.90
32107;DHT22;18622;51.998;10.440;2022-12-13T03:31:42;-6.00;99.90
32107;DHT22;18622;51.998;10.440;2022-12-13T03:34:10;-5.90;99.90
32107;DHT22;18622;51.998;10.440;2022-12-13T03:36:38;-5.80;99.90
32107;DHT22;18622;51.998;10.440;2022-12-13T03:39:06;-5.80;99.90
32107;DHT22;18622;51.998;10.440;2022-12-13T03:41:34;-5.70;99.90
32107;DHT22;18622;51.998;10.440;2022-12-13T03:44:05;-5.60;99.90
32107;DHT22;18622;51.998;10.440;2022-12-13T03:46:34;-5.60;99.90
32107;DHT22;18622;51.998;10.440;2022-12-13T03:49:02;-5.50;99.90
32107;DHT22;18622;51.998;10.440;2022-12-13T03:51:29;-5.40;99.90
32107;DHT22;18622;51.998;10.440;2022-12-13T03:53:57;-5.30;99.90
32107;DHT22;18622;51.998;10.440;2022-12-13T03:56:25;-5.30;99.90
32107;DHT22;18622;51.998;10.440;2022-12-13T03:58:53;-5.30;99.90
32107;DHT22;18622;51.998;10.440;2022-12-13T04:30:29;-5.70;99.90
32107;DHT22;18622;51.998;10.440;2022-12-13T04:32:56;-5.70;99.90
32107;DHT22;18622;51.998;10.440;2022-12-13T04:35:24;-5.70;99.90
32107;DHT22;18622;51.998;10.440;2022-12-13T04:37:53;-5.70;99.90
32107;DHT22;18622;51.998;10.440;2022-12-13T04:40:22;-5.70;99.90
32107;DHT22;18622;51.998;10.440;2022-12-13T04:42:50;-5.80;99.90
32107;DHT22;18622;51.998;10.440;2022-12-13T04:45:20;-5.80;99.90
32107;DHT22;18622;51.998;10.440;2022-12-13T04:47:48;-5.90;99.90
32107;DHT22;18622;51.998;10.440;2022-12-13T04:50:16;-5.90;99.90
32107;DHT22;18622;51.998;10.440;2022-12-13T04:52:45;-6.00;99.90
32107;DHT22;18622;51.998;10.440;2022-12-13T04:55:12;-6.00;99.90
32107;DHT22;18622;51.998;10.440;2022-12-13T04:57:40;-6.00;99.90
32107;DHT22;18622;51.998;10.440;2022-12-13T05:00:10;-6.10;99.90
32107;DHT22;18622;51.998;10.440;2022-12-13T05:02:39;-6.10;99.90
32107;DHT22;18622;51.998;10.440;2022-12-13T05:05:08;-6.20;99.90
32107;DHT22;18622;51.998;10.440;2022-12-13T05:07:37;-6.20;99.90
32107;DHT22;18622;51.998;10.440;2022-12-13T05:10:05;-6.30;99.90
32107;DHT22;18622;51.998;10.440;2022-12-13T05:12:33;-6.30;99.90
32107;DHT22;18622;51.998;10.440;2022-12-13T05:15:01;-6.30;99.90
32107;DHT22;18622;51.998;10.440;2022-12-13T05:17:28;-6.40;99.90
32107;DHT22;18622;51.998;10.440;2022-12-13T05:19:56;-6.40;99.90
32107;DHT22;18622;51.998;10.440;2022-12-13T05:22:24;-6.40;99.90
32107;DHT22;18622;51.998;10.440;2022-12-13T05:24:52;-6.40;99.90
32107;DHT22;18622;51.998;10.440;2022-12-13T05:27:20;-6.50;99.90
32107;DHT22;18622;51.998;10.440;2022-12-13T05:29:48;-6.50;99.90
32107;DHT22;18622;51.998;10.440;2022-12-13T05:32:16;-6.40;99.90
32107;DHT22;18622;51.998;10.440;2022-12-13T05:34:44;-6.40;99.90
32107;DHT22;18622;51.998;10.440;2022-12-13T05:37:11;-6.40;99.90
32107;DHT22;18622;51.998;10.440;2022-12-13T05:39:39;-6.30;99.90
32107;DHT22;18622;51.998;10.440;2022-12-13T05:42:08;-6.30;99.90
32107;DHT22;18622;51.998;10.440;2022-12-13T05:44:37;-6.30;99.90
32107;DHT22;18622;51.998;10.440;2022-12-13T05:47:05;-6.30;99.90
32107;DHT22;18622;51.998;10.440;2022-12-13T05:49:32;-6.30;99.90
32107;DHT22;18622;51.998;10.440;2022-12-13T05:52:00;-6.20;99.90
32107;DHT22;18622;51.998;10.440;2022-12-13T05:54:28;-6.20;99.90
32107;DHT22;18622;51.998;10.440;2022-12-13T05:56:56;-6.20;99.90
32107;DHT22;18622;51.998;10.440;2022-12-13T05:59:24;-6.20;99.90
32107;DHT22;18622;51.998;10.440;2022-12-13T06:01:51;-6.20;99.90
32107;DHT22;18622;51.998;10.440;2022-12-13T06:04:19;-6.30;99.90
32107;DHT22;18622;51.998;10.440;2022-12-13T06:09:16;-6.30;99.90
32107;DHT22;18622;51.998;10.440;2022-12-13T06:11:44;-6.40;99.90
32107;DHT22;18622;51.998;10.440;2022-12-13T06:14:12;-6.40;99.90
32107;DHT22;18622;51.998;10.440;2022-12-13T06:16:39;-6.40;99.90
32107;DHT22;18622;51.998;10.440;2022-12-13T06:19:07;-6.30;99.90
32107;DHT22;18622;51.998;10.440;2022-12-13T06:21:35;-6.30;99.90
32107;DHT22;18622;51.998;10.440;2022-12-13T06:24:03;-6.30;99.90
32107;DHT22;18622;51.998;10.440;2022-12-13T06:29:00;-6.30;99.90
32107;DHT22;18622;51.998;10.440;2022-12-13T10:01:05;2.50;96.10
32107;DHT22;18622;51.998;10.440;2022-12-13T10:03:33;2.50;95.60
32107;DHT22;18622;51.998;10.440;2022-12-13T10:06:12;3.00;96.30
32107;DHT22;18622;51.998;10.440;2022-12-13T10:08:42;3.60;95.10
32107;DHT22;18622;51.998;10.440;2022-12-13T10:11:15;4.20;93.70
32107;DHT22;18622;51.998;10.440;2022-12-13T10:13:58;4.80;92.50
32107;DHT22;18622;51.998;10.440;2022-12-13T10:22:07;6.10;87.40
32107;DHT22;18622;51.998;10.440;2022-12-13T10:24:57;6.50;81.20
32107;DHT22;18622;51.998;10.440;2022-12-13T10:27:44;6.70;77.90
32107;DHT22;18622;51.998;10.440;2022-12-13T10:30:19;6.90;77.10
32107;DHT22;18622;51.998;10.440;2022-12-13T10:33:05;7.20;78.10
32107;DHT22;18622;51.998;10.440;2022-12-13T10:35:39;7.50;77.90
32107;DHT22;18622;51.998;10.440;2022-12-13T10:40:39;8.10;76.20
32107;DHT22;18622;51.998;10.440;2022-12-13T10:43:22;8.40;73.70
32107;DHT22;18622;51.998;10.440;2022-12-13T10:46:00;8.60;72.40
32107;DHT22;18622;51.998;10.440;2022-12-13T10:51:01;9.00;70.70
32107;DHT22;18622;51.998;10.440;2022-12-13T10:53:31;9.30;69.50
32107;DHT22;18622;51.998;10.440;2022-12-13T10:56:01;9.70;69.50
32107;DHT22;18622;51.998;10.440;2022-12-13T10:58:41;9.90;68.10
32107;DHT22;18622;51.998;10.440;2022-12-13T11:01:19;10.20;64.40
32107;DHT22;18622;51.998;10.440;2022-12-13T11:03:40;10.30;63.70
32107;DHT22;18622;51.998;10.440;2022-12-13T11:06:14;10.50;62.70
32107;DHT22;18622;51.998;10.440;2022-12-13T11:08:43;10.80;60.30
32107;DHT22;18622;51.998;10.440;2022-12-13T11:11:11;10.90;58.60
32107;DHT22;18622;51.998;10.440;2022-12-13T11:13:45;11.10;55.60
32107;DHT22;18622;51.998;10.440;2022-12-13T11:16:29;11.00;53.60
32107;DHT22;18622;51.998;10.440;2022-12-13T11:19:00;10.70;53.20
32107;DHT22;18622;51.998;10.440;2022-12-13T11:21:32;10.60;53.10
32107;DHT22;18622;51.998;10.440;2022-12-13T11:24:05;10.70;52.20
32107;DHT22;18622;51.998;10.440;2022-12-13T11:26:36;10.80;51.60
32107;DHT22;18622;51.998;10.440;2022-12-13T11:32:20;11.30;53.90
32107;DHT22;18622;51.998;10.440;2022-12-13T11:34:51;11.60;53.70
32107;DHT22;18622;51.998;10.440;2022-12-13T11:40:01;12.40;51.20
32107;DHT22;18622;51.998;10.440;2022-12-13T11:42:34;12.60;48.80
32107;DHT22;18622;51.998;10.440;2022-12-13T11:47:39;12.60;47.60
32107;DHT22;18622;51.998;10.440;2022-12-13T11:50:18;12.50;46.30
32107;DHT22;18622;51.998;10.440;2022-12-13T11:52:50;12.50;46.10
32107;DHT22;18622;51.998;10.440;2022-12-13T11:55:20;12.30;46.10
32107;DHT22;18622;51.998;10.440;2022-12-13T11:58:08;12.10;47.30
32107;DHT22;18622;51.998;10.440;2022-12-13T16:00:53;-2.80;91.30
32107;DHT22;18622;51.998;10.440;2022-12-13T16:03:23;-2.80;91.70
32107;DHT22;18622;51.998;10.440;2022-12-13T16:05:53;-2.90;92.10
32107;DHT22;18622;51.998;10.440;2022-12-13T16:08:32;-2.90;92.50
32107;DHT22;18622;51.998;10.440;2022-12-13T16:11:01;-3.00;92.90
32107;DHT22;18622;51.998;10.440;2022-12-13T16:18:32;-3.00;93.50
32107;DHT22;18622;51.998;10.440;2022-12-13T16:21:00;-3.10;93.60
32107;DHT22;18622;51.998;10.440;2022-12-13T16:23:28;-3.10;93.90
32107;DHT22;18622;51.998;10.440;2022-12-13T16:25:56;-3.10;94.20
32107;DHT22;18622;51.998;10.440;2022-12-13T16:28:24;-3.10;94.50
32107;DHT22;18622;51.998;10.440;2022-12-13T16:30:59;-3.10;95.00
32107;DHT22;18622;51.998;10.440;2022-12-13T16:33:25;-3.20;94.80
32107;DHT22;18622;51.998;10.440;2022-12-13T16:35:54;-3.20;94.80
32107;DHT22;18622;51.998;10.440;2022-12-13T16:38:23;-3.20;95.00
32107;DHT22;18622;51.998;10.440;2022-12-13T16:40:53;-3.20;95.20
32107;DHT22;18622;51.998;10.440;2022-12-13T16:43:23;-3.30;95.20
32107;DHT22;18622;51.998;10.440;2022-12-13T16:45:53;-3.30;95.40
32107;DHT22;18622;51.998;10.440;2022-12-13T16:48:21;-3.40;95.60
32107;DHT22;18622;51.998;10.440;2022-12-13T16:50:50;-3.40;95.90
32107;DHT22;18622;51.998;10.440;2022-12-13T16:53:19;-3.40;95.80
32107;DHT22;18622;51.998;10.440;2022-12-13T16:55:46;-3.40;96.10
32107;DHT22;18622;51.998;10.440;2022-12-13T16:58:16;-3.40;96.10
32107;DHT22;18622;51.998;10.440;2022-12-13T17:00:45;-3.50;96.10
32107;DHT22;18622;51.998;10.440;2022-12-13T17:03:13;-3.50;96.10
32107;DHT22;18622;51.998;10.440;2022-12-13T17:05:43;-3.50;96.20
32107;DHT22;18622;51.998;10.440;2022-12-13T17:08:14;-3.50;96.20
32107;DHT22;18622;51.998;10.440;2022-12-13T17:10:43;-3.50;96.60
32107;DHT22;18622;51.998;10.440;2022-12-13T17:13:11;-3.60;96.80
32107;DHT22;18622;51.998;10.440;2022-12-13T17:15:38;-3.60;96.70
32107;DHT22;18622;51.998;10.440;2022-12-13T17:18:07;-3.60;96.60
32107;DHT22;18622;51.998;10.440;2022-12-13T17:20:35;-3.70;96.60
32107;DHT22;18622;51.998;10.440;2022-12-13T17:23:02;-3.70;96.80
32107;DHT22;18622;51.998;10.440;2022-12-13T17:25:30;-3.70;96.80
32107;DHT22;18622;51.998;10.440;2022-12-13T17:27:58;-3.70;96.90
32107;DHT22;18622;51.998;10.440;2022-12-13T17:30:26;-3.80;97.00
32107;DHT22;18622;51.998;10.440;2022-12-13T17:32:57;-3.80;97.00
32107;DHT22;18622;51.998;10.440;2022-12-13T17:35:25;-3.90;97.00
32107;DHT22;18622;51.998;10.440;2022-12-13T17:37:53;-3.90;97.00
32107;DHT22;18622;51.998;10.440;2022-12-13T17:40:21;-3.90;97.20
32107;DHT22;18622;51.998;10.440;2022-12-13T17:42:49;-3.90;97.30
32107;DHT22;18622;51.998;10.440;2022-12-13T17:45:17;-3.90;97.60
32107;DHT22;18622;51.998;10.440;2022-12-13T17:50:26;-4.00;97.60
32107;DHT22;18622;51.998;10.440;2022-12-13T17:52:54;-4.00;97.60
32107;DHT22;18622;51.998;10.440;2022-12-13T17:55:22;-4.00;97.80
32107;DHT22;18622;51.998;10.440;2022-12-13T17:57:50;-4.10;97.70
32107;DHT22;18622;51.998;10.440;2022-12-13T18:00:18;-4.10;97.90
32107;DHT22;18622;51.998;10.440;2022-12-13T18:02:45;-4.10;98.40
32107;DHT22;18622;51.998;10.440;2022-12-13T18:05:13;-4.10;98.60
32107;DHT22;18622;51.998;10.440;2022-12-13T18:07:41;-4.10;98.60
32107;DHT22;18622;51.998;10.440;2022-12-13T18:10:09;-4.10;98.60
32107;DHT22;18622;51.998;10.440;2022-12-13T18:12:37;-4.20;98.60
32107;DHT22;18622;51.998;10.440;2022-12-13T18:15:05;-4.20;98.80
32107;DHT22;18622;51.998;10.440;2022-12-13T18:17:33;-4.30;99.00
32107;DHT22;18622;51.998;10.440;2022-12-13T18:20:00;-4.30;99.20
32107;DHT22;18622;51.998;10.440;2022-12-13T18:22:28;-4.30;99.00
32107;DHT22;18622;51.998;10.440;2022-12-13T18:24:56;-4.40;99.00
32107;DHT22;18622;51.998;10.440;2022-12-13T18:27:24;-4.40;99.10
32107;DHT22;18622;51.998;10.440;2022-12-13T18:29:52;-4.40;99.20
32107;DHT22;18622;51.998;10.440;2022-12-13T18:32:20;-4.40;99.30
32107;DHT22;18622;51.998;10.440;2022-12-13T18:34:48;-4.40;99.50
32107;DHT22;18622;51.998;10.440;2022-12-13T18:37:16;-4.40;99.40
32107;DHT22;18622;51.998;10.440;2022-12-13T18:39:43;-4.40;99.40
32107;DHT22;18622;51.998;10.440;2022-12-13T18:42:11;-4.40;99.40
32107;DHT22;18622;51.998;10.440;2022-12-13T18:44:39;-4.50;99.30
32107;DHT22;18622;51.998;10.440;2022-12-13T18:47:07;-4.50;99.30
32107;DHT22;18622;51.998;10.440;2022-12-13T18:49:35;-4.50;99.40
32107;DHT22;18622;51.998;10.440;2022-12-13T18:52:03;-4.60;99.50
32107;DHT22;18622;51.998;10.440;2022-12-13T18:54:32;-4.60;99.50
32107;DHT22;18622;51.998;10.440;2022-12-13T18:56:59;-4.60;99.60
32107;DHT22;18622;51.998;10.440;2022-12-13T18:59:27;-4.60;99.60
32107;DHT22;18622;51.998;10.440;2022-12-13T19:01:55;-4.60;99.50
32107;DHT22;18622;51.998;10.440;2022-12-13T19:04:23;-4.70;99.60
32107;DHT22;18622;51.998;10.440;2022-12-13T19:06:51;-4.70;99.70
32107;DHT22;18622;51.998;10.440;2022-12-13T19:09:19;-4.70;99.60
32107;DHT22;18622;51.998;10.440;2022-12-13T19:11:46;-4.80;99.40
32107;DHT22;18622;51.998;10.440;2022-12-13T19:14:14;-4.90;99.40
32107;DHT22;18622;51.998;10.440;2022-12-13T19:16:42;-4.90;99.40
32107;DHT22;18622;51.998;10.440;2022-12-13T19:19:10;-5.00;99.40
32107;DHT22;18622;51.998;10.440;2022-12-13T19:21:38;-5.00;99.50
32107;DHT22;18622;51.998;10.440;2022-12-13T19:24:06;-5.00;99.60
32107;DHT22;18622;51.998;10.440;2022-12-13T19:26:35;-5.00;99.70
32107;DHT22;18622;51.998;10.440;2022-12-13T19:29:03;-5.00;99.70
32107;DHT22;18622;51.998;10.440;2022-12-13T19:31:31;-4.90;99.80
32107;DHT22;18622;51.998;10.440;2022-12-13T19:34:00;-5.00;99.90
32107;DHT22;18622;51.998;10.440;2022-12-13T19:36:28;-5.00;99.90
32107;DHT22;18622;51.998;10.440;2022-12-13T19:38:56;-5.00;99.80
32107;DHT22;18622;51.998;10.440;2022-12-13T19:41:24;-5.00;99.90
32107;DHT22;18622;51.998;10.440;2022-12-13T19:43:52;-5.00;99.90
32107;DHT22;18622;51.998;10.440;2022-12-13T19:46:20;-5.00;99.80
32107;DHT22;18622;51.998;10.440;2022-12-13T19:48:48;-5.00;99.80
32107;DHT22;18622;51.998;10.440;2022-12-13T19:51:16;-5.10;99.80
32107;DHT22;18622;51.998;10.440;2022-12-13T19:53:43;-5.10;99.80
32107;DHT22;18622;51.998;10.440;2022-12-13T19:56:13;-5.10;99.90
32107;DHT22;18622;51.998;10.440;2022-12-13T19:58:44;-5.10;99.90
32107;DHT22;18622;51.998;10.440;2022-12-13T20:01:13;-5.10;99.90
32107;DHT22;18622;51.998;10.440;2022-12-13T20:03:42;-5.10;99.90
32107;DHT22;18622;51.998;10.440;2022-12-13T20:06:16;-5.10;99.90
32107;DHT22;18622;51.998;10.440;2022-12-13T20:08:43;-5.10;99.90
32107;DHT22;18622;51.998;10.440;2022-12-13T20:11:14;-5.10;99.90
32107;DHT22;18622;51.998;10.440;2022-12-13T20:13:42;-5.10;99.90
32107;DHT22;18622;51.998;10.440;2022-12-13T20:16:15;-5.10;99.90
32107;DHT22;18622;51.998;10.440;2022-12-13T20:18:42;-5.10;99.90
32107;DHT22;18622;51.998;10.440;2022-12-13T20:21:12;-5.10;99.90
32107;DHT22;18622;51.998;10.440;2022-12-13T20:23:43;-5.00;99.90
32107;DHT22;18622;51.998;10.440;2022-12-13T20:26:13;-5.00;99.90
32107;DHT22;18622;51.998;10.440;2022-12-13T20:28:41;-5.10;99.90
32107;DHT22;18622;51.998;10.440;2022-12-13T20:31:14;-5.00;99.90
32107;DHT22;18622;51.998;10.440;2022-12-13T20:33:44;-5.00;99.90
32107;DHT22;18622;51.998;10.440;2022-12-13T20:36:14;-5.00;99.90
32107;DHT22;18622;51.998;10.440;2022-12-13T20:38:42;-5.00;99.90
32107;DHT22;18622;51.998;10.440;2022-12-13T20:41:12;-5.00;99.90
32107;DHT22;18622;51.998;10.440;2022-12-13T20:43:40;-4.90;99.90
32107;DHT22;18622;51.998;10.440;2022-12-13T20:46:13;-5.00;99.90
32107;DHT22;18622;51.998;10.440;2022-12-13T20:48:43;-5.00;99.90
32107;DHT22;18622;51.998;10.440;2022-12-13T20:51:16;-5.00;99.90
32107;DHT22;18622;51.998;10.440;2022-12-13T20:53:46;-5.00;99.90
32107;DHT22;18622;51.998;10.440;2022-12-13T20:56:17;-5.00;99.90
32107;DHT22;18622;51.998;10.440;2022-12-13T20:58:45;-5.00;99.90
32107;DHT22;18622;51.998;10.440;2022-12-13T21:01:15;-5.00;99.90
32107;DHT22;18622;51.998;10.440;2022-12-13T21:03:43;-5.00;99.90
32107;DHT22;18622;51.998;10.440;2022-12-13T21:06:11;-5.00;99.90
32107;DHT22;18622;51.998;10.440;2022-12-13T21:08:39;-5.00;99.90
32107;DHT22;18622;51.998;10.440;2022-12-13T21:11:26;-5.00;99.90
32107;DHT22;18622;51.998;10.440;2022-12-13T21:16:46;-4.90;99.90
32107;DHT22;18622;51.998;10.440;2022-12-13T21:19:26;-4.90;99.90
32107;DHT22;18622;51.998;10.440;2022-12-13T21:21:52;-4.80;99.90
32107;DHT22;18622;51.998;10.440;2022-12-13T21:24:21;-4.80;99.90
32107;DHT22;18622;51.998;10.440;2022-12-13T21:26:49;-4.80;99.90
32107;DHT22;18622;51.998;10.440;2022-12-13T21:29:18;-4.80;99.90
32107;DHT22;18622;51.998;10.440;2022-12-13T21:31:47;-4.80;99.90
32107;DHT22;18622;51.998;10.440;2022-12-13T21:34:16;-4.80;99.90
32107;DHT22;18622;51.998;10.440;2022-12-13T21:36:46;-4.90;99.90
32107;DHT22;18622;51.998;10.440;2022-12-13T21:39:19;-4.90;99.90
32107;DHT22;18622;51.998;10.440;2022-12-13T21:41:49;-4.90;99.90
32107;DHT22;18622;51.998;10.440;2022-12-13T21:44:18;-4.90;99.90
32107;DHT22;18622;51.998;10.440;2022-12-13T21:46:47;-4.90;99.90
32107;DHT22;18622;51.998;10.440;2022-12-13T21:49:14;-4.80;99.90
32107;DHT22;18622;51.998;10.440;2022-12-13T21:51:42;-4.80;99.90
32107;DHT22;18622;51.998;10.440;2022-12-13T21:54:10;-4.80;99.90
32107;DHT22;18622;51.998;10.440;2022-12-13T21:56:38;-4.80;99.90
32107;DHT22;18622;51.998;10.440;2022-12-13T21:59:24;-4.80;99.90
